Time;durP1;ratioP1;P1;durP2;ratioP2;P2;SDS_P1;SDS_P2;PMS_P1;PMS_P2;Temp;Humidity;BMP_temperature;BMP_pressure;BME280_temperature;BME280_humidity;BME280_pressure;Samples;Min_cycle;Max_cycle;Signal;HPM_P1;HPM_P2
2021/05/24 00:00:14;;;;;;;;;0.00;0.00;;;;;16.77;45.15;100427.97;5036430;28;46686;-75
2021/05/24 00:02:41;;;;;;;;;0.00;0.00;;;;;16.78;45.20;100423.47;5036276;28;45602;-75
2021/05/24 00:05:10;;;;;;;;;0.00;0.00;;;;;16.75;45.80;100421.78;5036508;28;45356;-74
2021/05/24 00:07:36;;;;;;;;;0.00;0.00;;;;;16.71;45.68;100412.19;5050099;28;45493;-72
2021/05/24 00:10:08;;;;;;;;;1.00;1.00;;;;;16.69;45.67;100414.09;5034256;28;46632;-74
2021/05/24 00:12:34;;;;;;;;;1.00;1.00;;;;;16.69;45.57;100418.59;5027176;28;45578;-74
2021/05/24 00:14:59;;;;;;;;;0.33;0.33;;;;;16.66;46.03;100416.03;5039885;28;45360;-75
2021/05/24 00:17:25;;;;;;;;;0.00;0.00;;;;;16.67;45.72;100416.00;5035803;28;45564;-74
2021/05/24 00:19:50;;;;;;;;;0.67;0.67;;;;;16.70;45.69;100396.19;5032395;28;46130;-75
2021/05/24 00:22:16;;;;;;;;;0.67;0.67;;;;;16.68;45.73;100404.31;5031911;28;45442;-73
2021/05/24 00:24:42;;;;;;;;;2.00;1.00;;;;;16.69;45.81;100397.16;5034408;28;45722;-73
2021/05/24 00:27:07;;;;;;;;;0.00;0.00;;;;;16.68;46.19;100382.88;5036031;28;45493;-74
2021/05/24 00:29:33;;;;;;;;;1.33;1.33;;;;;16.67;45.74;100390.97;5036061;28;45739;-74
2021/05/24 00:31:58;;;;;;;;;0.67;0.67;;;;;16.65;46.18;100374.97;5035191;28;45350;-74
2021/05/24 00:34:24;;;;;;;;;0.00;0.00;;;;;16.62;46.14;100372.44;5034820;28;45800;-75
2021/05/24 00:36:49;;;;;;;;;0.00;0.00;;;;;16.62;46.20;100383.16;5034031;28;45592;-74
2021/05/24 00:39:14;;;;;;;;;1.00;0.67;;;;;16.62;46.20;100379.59;5030690;28;48301;-75
2021/05/24 00:41:41;;;;;;;;;0.00;0.00;;;;;16.57;46.48;100379.84;5034580;28;45466;-74
2021/05/24 00:44:10;;;;;;;;;1.00;1.00;;;;;16.53;46.59;100374.75;5034370;28;45572;-74
2021/05/24 00:46:36;;;;;;;;;0.00;0.00;;;;;16.48;46.68;100366.94;5032165;28;45631;-75
2021/05/24 00:49:03;;;;;;;;;0.33;0.00;;;;;16.50;46.94;100348.97;5050869;28;47330;-74
2021/05/24 00:51:28;;;;;;;;;0.33;0.33;;;;;16.46;46.88;100358.97;5033960;28;45438;-74
2021/05/24 00:53:55;;;;;;;;;1.00;1.00;;;;;16.43;46.75;100352.94;5031143;28;45534;-75
2021/05/24 00:56:22;;;;;;;;;1.00;0.00;;;;;16.42;46.67;100364.59;5034106;28;45501;-73
2021/05/24 00:58:48;;;;;;;;;0.67;0.67;;;;;16.38;46.68;100352.28;5033001;28;46462;-74
2021/05/24 01:01:13;;;;;;;;;0.00;0.00;;;;;16.38;47.06;100349.59;5034041;28;45387;-74
2021/05/24 01:03:39;;;;;;;;;0.00;0.00;;;;;16.39;46.84;100343.31;5050773;28;45413;-72
2021/05/24 01:06:05;;;;;;;;;0.00;0.00;;;;;16.37;47.04;100342.50;5034912;28;45784;-73
2021/05/24 01:08:30;;;;;;;;;0.00;0.00;;;;;16.37;47.02;100331.81;5050485;28;47844;-74
2021/05/24 01:10:55;;;;;;;;;0.00;0.00;;;;;16.35;46.83;100328.34;5034019;28;45452;-73
2021/05/24 01:13:21;;;;;;;;;1.00;1.00;;;;;16.32;46.66;100331.19;5025755;28;45445;-74
2021/05/24 01:15:46;;;;;;;;;0.00;0.00;;;;;16.33;46.50;100314.16;5056138;28;45659;-74
2021/05/24 01:18:12;;;;;;;;;1.00;1.00;;;;;16.34;46.29;100319.44;5036382;28;45425;-73
2021/05/24 01:20:38;;;;;;;;;1.00;1.00;;;;;16.35;46.88;100310.47;5033628;28;45207;-75
2021/05/24 01:25:32;;;;;;;;;0.00;0.00;;;;;16.25;46.51;100305.66;5035072;28;45402;-73
2021/05/24 01:27:58;;;;;;;;;0.00;0.00;;;;;16.26;47.07;100300.25;5020452;28;47627;-73
2021/05/24 01:30:23;;;;;;;;;0.67;0.67;;;;;16.23;47.25;100294.16;5029660;28;45492;-74
2021/05/24 01:32:49;;;;;;;;;0.67;0.67;;;;;16.23;47.18;100300.38;5044042;28;45423;-73
2021/05/24 01:35:14;;;;;;;;;0.67;0.67;;;;;16.21;47.48;100296.91;5034137;28;45556;-73
2021/05/24 01:37:40;;;;;;;;;1.67;0.00;;;;;16.19;47.60;100298.81;5034786;28;46194;-75
2021/05/24 01:40:07;;;;;;;;;1.00;1.00;;;;;16.20;47.84;100281.81;5033156;28;46333;-74
2021/05/24 01:42:33;;;;;;;;;1.33;0.00;;;;;16.19;48.08;100288.09;5035596;28;45468;-74
2021/05/24 01:44:58;;;;;;;;;0.00;0.00;;;;;16.17;47.77;100290.00;5037719;28;45212;-72
2021/05/24 01:47:24;;;;;;;;;0.00;0.00;;;;;16.10;48.43;100283.22;5032440;28;47707;-74
2021/05/24 01:49:49;;;;;;;;;1.00;0.00;;;;;16.04;48.65;100279.06;5038415;28;46495;-74
2021/05/24 01:52:17;;;;;;;;;0.00;0.00;;;;;16.00;48.92;100282.81;5038678;28;45487;-74
2021/05/24 01:54:44;;;;;;;;;0.00;0.00;;;;;15.95;48.79;100290.22;5036873;28;45397;-72
2021/05/24 01:57:10;;;;;;;;;0.00;0.00;;;;;15.97;49.20;100276.75;5038231;28;46147;-74
2021/05/24 01:59:36;;;;;;;;;0.00;0.00;;;;;15.93;48.96;100277.88;5036967;28;45492;-73
2021/05/24 02:02:03;;;;;;;;;1.00;0.67;;;;;15.92;49.07;100278.81;5049214;28;45197;-74
2021/05/24 02:04:29;;;;;;;;;0.00;0.00;;;;;15.90;49.26;100273.53;5039020;28;45568;-73
2021/05/24 02:06:55;;;;;;;;;0.00;0.00;;;;;15.91;49.49;100272.59;5043078;28;48021;-74
2021/05/24 02:09:20;;;;;;;;;0.67;0.67;;;;;15.87;49.49;100269.19;5048148;28;46036;-74
2021/05/24 02:11:46;;;;;;;;;1.00;1.00;;;;;15.84;49.59;100265.81;5045499;28;45288;-74
2021/05/24 02:14:11;;;;;;;;;1.00;0.00;;;;;15.85;49.99;100256.84;5046048;28;45648;-75
2021/05/24 02:16:49;;;;;;;;;0.00;0.00;;;;;15.82;49.84;100251.66;5050134;28;45388;-74
2021/05/24 02:19:16;;;;;;;;;0.67;0.67;;;;;15.76;50.37;100255.53;5042854;28;45370;-73
2021/05/24 02:21:42;;;;;;;;;1.00;1.00;;;;;15.66;50.47;100254.25;5042354;28;45457;-73
2021/05/24 02:24:09;;;;;;;;;1.67;0.00;;;;;15.64;51.05;100252.59;5041028;28;45644;-73
2021/05/24 02:26:36;;;;;;;;;1.00;1.00;;;;;15.64;51.07;100241.88;5038166;28;47510;-75
2021/05/24 02:29:04;;;;;;;;;0.00;0.00;;;;;15.58;51.21;100251.03;5036742;28;46453;-75
2021/05/24 02:31:29;;;;;;;;;0.67;0.00;;;;;15.55;51.52;100245.84;5038208;28;45463;-74
2021/05/24 02:33:55;;;;;;;;;0.00;0.00;;;;;15.49;52.34;100241.66;5036630;28;45603;-75
2021/05/24 02:36:22;;;;;;;;;0.33;0.33;;;;;15.45;52.57;100250.78;5052949;28;47286;-74
2021/05/24 02:38:47;;;;;;;;;1.00;1.00;;;;;15.44;52.60;100246.38;5037557;28;45406;-74
2021/05/24 02:41:13;;;;;;;;;0.33;0.33;;;;;15.40;52.68;100254.63;5036619;28;45426;-74
2021/05/24 02:43:39;;;;;;;;;0.00;0.00;;;;;15.34;52.71;100237.06;5037968;28;45545;-74
2021/05/24 02:46:04;;;;;;;;;1.00;1.00;;;;;15.32;52.45;100249.66;5048194;27;47918;-74
2021/05/24 02:48:30;;;;;;;;;0.00;0.00;;;;;15.29;52.25;100231.94;5036626;28;45473;-73
2021/05/24 02:50:55;;;;;;;;;0.00;0.00;;;;;15.27;52.80;100228.50;5036067;28;45402;-74
2021/05/24 02:53:21;;;;;;;;;0.00;0.00;;;;;15.23;53.02;100239.38;5043536;28;45480;-74
2021/05/24 02:55:46;;;;;;;;;0.00;0.00;;;;;15.20;53.70;100215.47;5037513;28;45714;-74
2021/05/24 02:58:12;;;;;;;;;0.00;0.00;;;;;15.15;53.60;100204.16;5037615;28;45514;-74
2021/05/24 03:00:37;;;;;;;;;0.00;0.00;;;;;15.13;53.26;100227.44;5037604;28;45465;-74
2021/05/24 03:03:02;;;;;;;;;1.67;1.00;;;;;15.13;53.57;100217.59;5037513;28;45449;-72
2021/05/24 03:05:28;;;;;;;;;1.33;1.33;;;;;15.16;53.56;100219.25;5036921;28;46389;-74
2021/05/24 03:07:54;;;;;;;;;0.33;0.33;;;;;15.19;53.62;100216.44;5037122;28;45413;-74
2021/05/24 03:10:22;;;;;;;;;1.00;0.00;;;;;15.19;53.68;100203.94;5036276;28;45467;-73
2021/05/24 03:12:48;;;;;;;;;0.00;0.00;;;;;15.17;53.71;100215.66;5035541;28;45557;-72
2021/05/24 03:15:15;;;;;;;;;0.00;0.00;;;;;15.14;54.67;100218.47;5037261;28;46341;-74
2021/05/24 03:17:41;;;;;;;;;0.00;0.00;;;;;15.12;54.45;100206.97;5035598;28;46282;-73
2021/05/24 03:20:09;;;;;;;;;1.00;0.00;;;;;15.10;54.37;100208.84;5052767;27;45307;-73
2021/05/24 03:22:35;;;;;;;;;0.00;0.00;;;;;15.06;54.88;100209.94;5035496;28;45355;-74
2021/05/24 03:25:00;;;;;;;;;1.00;1.00;;;;;15.04;55.71;100211.84;5036988;28;46762;-73
2021/05/24 03:27:26;;;;;;;;;1.00;1.00;;;;;15.01;55.07;100211.03;5035131;28;45456;-74
2021/05/24 03:29:51;;;;;;;;;1.00;1.00;;;;;15.04;55.49;100218.03;5035503;28;45386;-75
2021/05/24 03:32:16;;;;;;;;;0.33;0.33;;;;;15.08;55.59;100208.94;5037272;28;45409;-75
2021/05/24 03:34:42;;;;;;;;;0.00;0.00;;;;;15.00;55.78;100209.31;5036888;28;45563;-75
2021/05/24 03:37:08;;;;;;;;;0.00;0.00;;;;;14.93;55.99;100210.53;5035408;28;45528;-74
2021/05/24 03:39:33;;;;;;;;;0.00;0.00;;;;;14.88;56.46;100212.56;5049638;28;45393;-74
2021/05/24 03:41:58;;;;;;;;;0.00;0.00;;;;;14.88;55.91;100203.69;5036958;28;45292;-74
2021/05/24 03:44:24;;;;;;;;;1.00;1.00;;;;;14.86;56.40;100201.06;5036749;28;45519;-74
2021/05/24 03:46:50;;;;;;;;;1.33;1.00;;;;;14.82;57.00;100217.31;5028588;28;45582;-75
2021/05/24 03:49:16;;;;;;;;;0.00;0.00;;;;;14.73;56.82;100215.94;5035367;28;45402;-74
2021/05/24 03:51:41;;;;;;;;;0.00;0.00;;;;;14.69;57.14;100228.56;5036440;28;45314;-74
2021/05/24 03:54:07;;;;;;;;;0.00;0.00;;;;;14.63;57.45;100222.66;5034769;28;46441;-71
2021/05/24 03:56:32;;;;;;;;;0.00;0.00;;;;;14.56;57.41;100222.06;5036634;28;45373;-73
2021/05/24 03:58:58;;;;;;;;;0.00;0.00;;;;;14.53;57.32;100224.88;5036524;28;45354;-72
2021/05/24 04:01:24;;;;;;;;;0.00;0.00;;;;;14.58;57.91;100213.97;5036654;28;45482;-73
2021/05/24 04:03:51;;;;;;;;;0.00;0.00;;;;;14.62;57.78;100235.16;5035081;28;47942;-74
2021/05/24 04:06:17;;;;;;;;;0.00;0.00;;;;;14.63;58.62;100220.00;5032607;28;45434;-74
2021/05/24 04:08:44;;;;;;;;;0.67;0.67;;;;;14.58;57.88;100230.00;5035487;28;45448;-73
2021/05/24 04:11:11;;;;;;;;;3.00;1.00;;;;;14.62;57.88;100223.59;5036221;28;45402;-74
2021/05/24 04:13:37;;;;;;;;;0.33;0.00;;;;;14.61;57.99;100221.84;5034665;28;47556;-74
2021/05/24 04:16:02;;;;;;;;;0.67;0.67;;;;;14.57;58.09;100225.59;5045705;28;45452;-74
2021/05/24 04:18:33;;;;;;;;;0.33;0.33;;;;;14.58;57.97;100213.97;5039317;28;45437;-74
2021/05/24 04:21:01;;;;;;;;;0.67;0.67;;;;;14.63;58.44;100220.88;5036016;28;45306;-74
2021/05/24 04:23:27;;;;;;;;;1.00;1.00;;;;;14.67;58.31;100224.25;5034398;28;48330;-72
2021/05/24 04:25:52;;;;;;;;;0.00;0.00;;;;;14.73;57.98;100221.28;5034736;28;45525;-74
2021/05/24 04:28:17;;;;;;;;;0.00;0.00;;;;;14.78;58.79;100216.59;5034929;28;45728;-74
2021/05/24 04:30:43;;;;;;;;;0.00;0.00;;;;;14.78;58.04;100218.41;5051611;28;45524;-73
2021/05/24 04:33:09;;;;;;;;;1.67;0.00;;;;;14.81;58.68;100220.94;5051396;28;47758;-74
2021/05/24 04:35:35;;;;;;;;;1.00;1.00;;;;;14.76;58.68;100229.16;5035476;28;45399;-74
2021/05/24 04:38:01;;;;;;;;;1.00;1.00;;;;;14.71;58.69;100220.50;5034024;28;45910;-73
2021/05/24 04:40:26;;;;;;;;;0.00;0.00;;;;;14.69;58.55;100228.56;5048275;28;45370;-75
2021/05/24 04:42:53;;;;;;;;;1.00;1.00;;;;;14.69;58.36;100227.72;5034489;28;47357;-74
2021/05/24 04:45:19;;;;;;;;;1.00;1.00;;;;;14.73;58.52;100242.66;5032817;28;45377;-74
2021/05/24 04:47:44;;;;;;;;;1.00;1.00;;;;;14.72;58.46;100236.44;5032354;28;45722;-73
2021/05/24 04:50:11;;;;;;;;;0.00;0.00;;;;;14.73;58.65;100243.50;5034015;28;45366;-74
2021/05/24 04:52:36;;;;;;;;;1.00;1.00;;;;;14.79;58.70;100239.72;5034296;28;47132;-74
2021/05/24 04:55:05;;;;;;;;;0.00;0.00;;;;;14.81;58.79;100240.50;5035316;28;45349;-74
2021/05/24 04:57:30;;;;;;;;;0.67;0.67;;;;;14.82;59.22;100239.56;5034409;28;45464;-74
2021/05/24 04:59:55;;;;;;;;;2.00;2.00;;;;;14.81;58.84;100253.84;5035809;28;45464;-75
2021/05/24 05:02:21;;;;;;;;;1.00;1.00;;;;;14.82;59.83;100244.03;5029525;28;48283;-74
2021/05/24 05:04:46;;;;;;;;;1.67;0.00;;;;;14.78;59.18;100251.34;5038761;28;46356;-74
2021/05/24 05:07:12;;;;;;;;;1.33;1.00;;;;;14.75;59.64;100246.13;5032143;28;45698;-73
2021/05/24 05:09:37;;;;;;;;;0.00;0.00;;;;;14.76;59.48;100233.66;5040135;28;45482;-72
2021/05/24 05:12:04;;;;;;;;;0.00;0.00;;;;;14.78;59.53;100237.97;5042578;28;45972;-73
2021/05/24 05:14:30;;;;;;;;;0.00;0.00;;;;;14.78;59.41;100237.09;5040119;28;45291;-74
2021/05/24 05:16:55;;;;;;;;;0.33;0.33;;;;;14.80;59.39;100238.75;5036778;28;45384;-73
2021/05/24 05:19:20;;;;;;;;;1.00;0.00;;;;;14.85;59.34;100233.19;5035856;28;45398;-73
2021/05/24 05:21:48;;;;;;;;;0.00;0.00;;;;;14.88;59.52;100231.28;5041596;28;48469;-73
2021/05/24 05:24:13;;;;;;;;;2.33;2.33;;;;;14.88;59.80;100231.28;5039336;28;46082;-73
2021/05/24 05:26:39;;;;;;;;;1.00;1.00;;;;;14.89;59.54;100229.47;5039855;28;45383;-75
2021/05/24 05:29:05;;;;;;;;;1.00;1.00;;;;;14.91;59.63;100220.44;5043668;28;45310;-72
2021/05/24 05:31:30;;;;;;;;;0.00;0.00;;;;;14.93;59.58;100226.56;5039481;28;48437;-73
2021/05/24 05:33:56;;;;;;;;;1.00;0.00;;;;;14.92;60.23;100219.50;5035559;28;45413;-74
2021/05/24 05:36:24;;;;;;;;;1.00;1.00;;;;;14.86;60.08;100227.78;5033808;28;45508;-74
2021/05/24 05:38:49;;;;;;;;;0.00;0.00;;;;;14.83;59.82;100235.94;5034198;28;45586;-73
2021/05/24 05:41:15;;;;;;;;;1.00;1.00;;;;;14.87;59.72;100232.22;5038591;28;48528;-73
2021/05/24 05:43:40;;;;;;;;;0.00;0.00;;;;;14.89;59.75;100235.66;5058547;27;45441;-74
2021/05/24 05:46:06;;;;;;;;;2.00;2.00;;;;;14.92;59.55;100242.66;5034446;28;45339;-73
2021/05/24 05:48:31;;;;;;;;;1.00;1.00;;;;;14.95;59.39;100231.81;5030960;28;45723;-73
2021/05/24 05:50:57;;;;;;;;;1.00;1.00;;;;;14.98;59.50;100235.22;5029598;28;45914;-71
2021/05/24 05:53:22;;;;;;;;;0.00;0.00;;;;;15.02;59.67;100239.50;5026817;28;45604;-73
2021/05/24 05:55:47;;;;;;;;;0.67;0.67;;;;;15.02;59.98;100230.63;5020657;28;45351;-76
2021/05/24 05:58:13;;;;;;;;;0.00;0.00;;;;;15.01;59.57;100226.22;5041521;28;45594;-75
2021/05/24 06:00:38;;;;;;;;;0.00;0.00;;;;;15.01;59.57;100235.09;5041088;28;45340;-73
2021/05/24 06:03:05;;;;;;;;;0.00;0.00;;;;;14.99;59.47;100230.75;5034679;28;45345;-72
2021/05/24 06:05:30;;;;;;;;;0.00;0.00;;;;;14.99;59.29;100228.97;5034015;28;45446;-72
2021/05/24 06:07:56;;;;;;;;;0.67;0.67;;;;;14.96;60.25;100231.75;5052504;28;45498;-71
2021/05/24 06:10:21;;;;;;;;;0.00;0.00;;;;;14.98;59.63;100235.22;5040033;27;45424;-71
2021/05/24 06:12:47;;;;;;;;;1.00;1.00;;;;;15.00;59.87;100238.72;5038652;28;46618;-73
2021/05/24 06:15:16;;;;;;;;;1.00;1.00;;;;;14.98;59.83;100245.03;5056114;28;45563;-72
2021/05/24 06:17:42;;;;;;;;;0.00;0.00;;;;;15.06;59.70;100247.34;5055338;28;45641;-73
2021/05/24 06:20:08;;;;;;;;;1.00;1.00;;;;;15.09;59.13;100247.22;5039774;28;45574;-73
2021/05/24 06:22:33;;;;;;;;;0.00;0.00;;;;;15.11;59.39;100248.00;5036772;28;45441;-71
2021/05/24 06:24:59;;;;;;;;;1.00;1.00;;;;;15.12;59.11;100249.72;5045000;28;45393;-72
2021/05/24 06:27:24;;;;;;;;;1.33;0.00;;;;;15.10;59.12;100248.94;5040555;28;45587;-70
2021/05/24 06:29:50;;;;;;;;;0.67;0.67;;;;;15.13;58.87;100248.81;5037410;28;45636;-69
2021/05/24 06:32:15;;;;;;;;;1.00;1.00;;;;;15.17;59.22;100242.38;5035768;28;45476;-69
2021/05/24 06:34:40;;;;;;;;;2.00;1.00;;;;;15.17;59.00;100239.69;5043340;28;45797;-70
2021/05/24 06:37:06;;;;;;;;;2.00;1.00;;;;;15.20;59.00;100242.22;5038731;28;45502;-71
2021/05/24 06:39:31;;;;;;;;;0.00;0.00;;;;;15.21;58.52;100247.47;5037726;28;45520;-72
2021/05/24 06:41:56;;;;;;;;;0.00;0.00;;;;;15.26;58.47;100255.31;5049534;28;45580;-69
2021/05/24 06:44:22;;;;;;;;;1.33;0.00;;;;;15.19;57.97;100256.53;5049549;28;45712;-69
2021/05/24 06:46:48;;;;;;;;;0.00;0.00;;;;;15.12;57.97;100263.09;5038728;28;45445;-69
2021/05/24 06:49:14;;;;;;;;;4.00;1.00;;;;;15.14;58.02;100263.91;5042281;28;45406;-72
2021/05/24 06:51:39;;;;;;;;;1.67;0.67;;;;;15.17;58.25;100261.09;5039039;28;45467;-69
2021/05/24 06:54:04;;;;;;;;;0.00;0.00;;;;;15.19;57.84;100264.53;5040490;28;45374;-70
2021/05/24 06:56:30;;;;;;;;;0.00;0.00;;;;;15.19;58.09;100272.56;5037020;28;45484;-71
2021/05/24 06:58:55;;;;;;;;;1.00;1.00;;;;;15.20;57.86;100272.47;5035919;28;48213;-72
2021/05/24 07:01:21;;;;;;;;;1.67;1.67;;;;;15.22;57.77;100280.44;5033022;28;45552;-72
2021/05/24 07:03:46;;;;;;;;;0.67;0.67;;;;;15.21;57.50;100273.34;5033967;28;46014;-72
2021/05/24 07:06:12;;;;;;;;;1.00;1.00;;;;;15.19;57.81;100272.56;5030483;28;45471;-70
2021/05/24 07:08:37;;;;;;;;;0.67;0.67;;;;;15.22;57.92;100267.94;5039095;28;48391;-70
2021/05/24 07:11:04;;;;;;;;;1.00;1.00;;;;;15.27;57.80;100265.91;5036662;28;45536;-71
2021/05/24 07:13:29;;;;;;;;;1.00;1.00;;;;;15.25;57.65;100269.63;5032684;28;45497;-71
2021/05/24 07:15:55;;;;;;;;;0.00;0.00;;;;;15.20;57.64;100274.28;5032915;28;45556;-72
2021/05/24 07:18:20;;;;;;;;;1.67;1.67;;;;;15.26;57.48;100279.38;5042316;28;48666;-73
2021/05/24 07:20:47;;;;;;;;;1.00;1.00;;;;;15.24;57.35;100283.88;5025015;28;46062;-70
2021/05/24 07:23:16;;;;;;;;;1.67;1.33;;;;;15.19;57.56;100280.56;5033280;28;45449;-71
2021/05/24 07:25:42;;;;;;;;;1.00;1.00;;;;;15.20;58.07;100277.81;5031552;28;45590;-70
2021/05/24 07:28:08;;;;;;;;;1.00;1.00;;;;;15.17;57.67;100286.00;5035180;28;47565;-70
2021/05/24 07:30:34;;;;;;;;;1.00;1.00;;;;;15.08;57.40;100280.22;5036253;28;45478;-70
2021/05/24 07:33:00;;;;;;;;;1.67;1.00;;;;;15.08;57.92;100291.78;5045078;28;45489;-71
2021/05/24 07:35:25;;;;;;;;;1.00;1.00;;;;;15.09;57.67;100296.19;5036881;28;45731;-72
2021/05/24 07:37:50;;;;;;;;;1.00;1.00;;;;;15.14;57.52;100304.00;5035974;28;46393;-71
2021/05/24 07:40:16;;;;;;;;;1.67;1.67;;;;;15.21;57.57;100297.41;5035133;28;45379;-71
2021/05/24 07:42:42;;;;;;;;;1.00;1.00;;;;;15.31;57.23;100298.72;5040544;28;45409;-71
2021/05/24 07:45:08;;;;;;;;;1.00;1.00;;;;;15.38;57.18;100300.16;5034692;28;45647;-71
2021/05/24 07:47:34;;;;;;;;;2.00;2.00;;;;;15.43;56.89;100295.44;5027969;28;46325;-71
2021/05/24 07:50:00;;;;;;;;;1.00;1.00;;;;;15.50;56.72;100298.66;5035420;28;45483;-71
2021/05/24 07:52:26;;;;;;;;;1.00;1.00;;;;;15.54;56.54;100298.47;5036761;28;45418;-70
2021/05/24 07:54:51;;;;;;;;;0.67;0.67;;;;;15.53;55.76;100294.06;5030856;28;45615;-71
2021/05/24 07:57:17;;;;;;;;;2.33;1.00;;;;;15.58;56.00;100302.72;5030493;28;47501;-70
2021/05/24 07:59:42;;;;;;;;;1.00;1.00;;;;;15.66;55.98;100301.53;5045056;28;45536;-69
2021/05/24 08:02:08;;;;;;;;;1.33;0.00;;;;;15.69;55.58;100304.91;5029031;28;45409;-73
2021/05/24 08:04:34;;;;;;;;;1.00;1.00;;;;;15.77;55.56;100299.19;5036032;28;45595;-72
2021/05/24 08:06:59;;;;;;;;;0.00;0.00;;;;;15.78;55.33;100304.47;5032438;28;45892;-71
2021/05/24 08:09:25;;;;;;;;;1.33;1.00;;;;;15.84;55.27;100305.94;5030728;28;45614;-71
2021/05/24 08:11:51;;;;;;;;;2.33;2.33;;;;;15.91;54.97;100307.38;5033698;28;45345;-70
2021/05/24 08:14:17;;;;;;;;;1.00;1.00;;;;;15.97;54.91;100290.13;5046618;28;46471;-71
2021/05/24 08:16:47;;;;;;;;;1.00;1.00;;;;;15.96;54.82;100294.63;5029551;28;47013;-70
2021/05/24 08:19:13;;;;;;;;;1.00;1.00;;;;;15.92;54.85;100294.88;5034049;28;46122;-70
2021/05/24 08:21:49;;;;;;;;;1.33;1.00;;;;;15.87;54.84;100297.75;5057361;28;45436;-70
2021/05/24 08:24:16;;;;;;;;;1.33;1.00;;;;;15.90;54.74;100294.97;5022695;28;45643;-71
2021/05/24 08:26:42;;;;;;;;;1.33;1.33;;;;;15.94;54.49;100295.66;5026193;28;46629;-71
2021/05/24 08:29:08;;;;;;;;;5.50;5.50;;;;;15.93;54.29;100280.53;5031055;28;45496;-70
2021/05/24 08:31:35;;;;;;;;;1.00;1.00;;;;;15.98;54.55;100294.53;5035599;28;45490;-71
2021/05/24 08:34:00;;;;;;;;;0.33;0.00;;;;;16.00;54.67;100288.16;5042358;28;45515;-71
2021/05/24 08:36:27;;;;;;;;;2.00;2.00;;;;;16.01;54.64;100292.59;5035700;28;45740;-70
2021/05/24 08:38:53;;;;;;;;;0.00;0.00;;;;;15.96;54.12;100286.59;5030216;28;46148;-70
2021/05/24 08:41:18;;;;;;;;;1.00;1.00;;;;;15.88;54.16;100295.03;5034102;28;45499;-70
2021/05/24 08:43:44;;;;;;;;;4.33;4.33;;;;;15.96;53.96;100304.47;5035867;28;45382;-71
2021/05/24 08:46:10;;;;;;;;;2.33;1.67;;;;;15.97;53.72;100296.34;5045870;28;47273;-69
2021/05/24 08:48:35;;;;;;;;;0.67;0.67;;;;;16.02;53.97;100288.13;5033813;28;45572;-71
2021/05/24 08:51:03;;;;;;;;;1.00;1.00;;;;;16.18;54.13;100287.25;5036289;28;45641;-73
2021/05/24 08:53:29;;;;;;;;;1.00;1.00;;;;;16.26;54.10;100291.31;5035544;28;45638;-71
2021/05/24 08:55:55;;;;;;;;;2.00;2.00;;;;;16.32;53.59;100294.56;5035118;28;46417;-71
2021/05/24 08:58:21;;;;;;;;;0.67;0.67;;;;;16.31;53.89;100291.97;5034358;28;46493;-70
2021/05/24 09:00:46;;;;;;;;;1.00;1.00;;;;;16.30;53.77;100287.56;5031630;28;45905;-71
2021/05/24 09:03:23;;;;;;;;;1.00;1.00;;;;;16.27;53.93;100296.63;5024674;28;45429;-72
2021/05/24 09:05:51;;;;;;;;;1.33;1.33;;;;;16.12;53.55;100286.69;5039287;28;48517;-71
2021/05/24 09:08:16;;;;;;;;;5.00;5.00;;;;;16.07;54.02;100292.28;5049535;28;45413;-72
2021/05/24 09:10:44;;;;;;;;;3.67;3.67;;;;;15.98;53.93;100283.84;5035638;28;45425;-70
2021/05/24 09:13:15;;;;;;;;;1.00;1.00;;;;;15.93;53.96;100278.75;5028453;28;45406;-71
2021/05/24 09:15:43;;;;;;;;;3.00;3.00;;;;;15.93;54.16;100283.22;5045795;28;47688;-70
2021/05/24 09:18:10;;;;;;;;;1.00;1.00;;;;;15.89;53.67;100267.34;5034080;28;45620;-70
2021/05/24 09:20:44;;;;;;;;;2.00;2.00;;;;;16.04;53.89;100276.38;5049678;28;45450;-69
2021/05/24 09:23:22;;;;;;;;;1.00;1.00;;;;;16.28;53.49;100268.91;5044208;28;45465;-73
2021/05/24 09:25:57;;;;;;;;;1.33;1.33;;;;;16.44;53.07;100269.81;5039162;28;47715;-72
2021/05/24 09:28:29;;;;;;;;;2.33;2.33;;;;;16.58;52.79;100265.53;5032223;28;45947;-72
2021/05/24 09:30:55;;;;;;;;;2.67;2.67;;;;;16.71;53.22;100274.66;5039478;28;45553;-72
2021/05/24 09:33:20;;;;;;;;;3.00;1.00;;;;;16.89;52.77;100268.31;5048376;28;45511;-72
2021/05/24 09:35:51;;;;;;;;;1.00;1.00;;;;;17.01;51.84;100269.44;5052843;28;48624;-71
2021/05/24 09:38:22;;;;;;;;;1.00;1.00;;;;;17.06;51.87;100264.72;5032134;28;45537;-69
2021/05/24 09:40:52;;;;;;;;;2.00;2.00;;;;;17.09;51.35;100258.31;5041857;28;45671;-70
2021/05/24 09:43:17;;;;;;;;;1.00;1.00;;;;;17.06;51.33;100262.03;5041584;28;45620;-70
2021/05/24 09:45:43;;;;;;;;;1.67;1.67;;;;;16.99;51.30;100257.94;5029055;28;47204;-69
2021/05/24 09:48:08;;;;;;;;;3.00;2.00;;;;;16.88;51.44;100244.25;5035669;28;45385;-71
2021/05/24 09:50:36;;;;;;;;;1.67;1.67;;;;;16.97;51.33;100247.31;5034084;28;45379;-71
2021/05/24 09:53:02;;;;;;;;;2.00;2.00;;;;;17.01;51.38;100254.22;5033783;28;45656;-71
2021/05/24 09:55:31;;;;;;;;;2.00;1.00;;;;;17.09;51.03;100247.59;5019494;28;47845;-71
2021/05/24 09:58:05;;;;;;;;;3.00;2.00;;;;;17.14;50.40;100243.69;5035973;28;45547;-71
2021/05/24 10:01:01;;;;;;;;;1.00;1.00;;;;;17.25;50.74;100237.72;5033289;28;45500;-71
2021/05/24 10:03:33;;;;;;;;;1.00;1.00;;;;;17.34;49.62;100245.25;5030581;28;46669;-70
2021/05/24 10:05:59;;;;;;;;;1.67;1.67;;;;;17.32;49.61;100242.66;5033616;28;47852;-71
2021/05/24 10:08:25;;;;;;;;;2.00;2.00;;;;;17.29;50.28;100239.28;5037918;28;45470;-71
2021/05/24 10:10:50;;;;;;;;;1.00;1.00;;;;;17.37;50.10;100237.00;5037292;28;45369;-72
2021/05/24 10:13:17;;;;;;;;;1.00;1.00;;;;;17.40;49.64;100238.66;5035877;28;45478;-71
2021/05/24 10:15:44;;;;;;;;;3.00;3.00;;;;;17.42;49.80;100234.09;5024945;28;47525;-70
2021/05/24 10:18:11;;;;;;;;;2.33;2.33;;;;;17.45;49.89;100228.53;5049341;28;45480;-70
2021/05/24 10:20:37;;;;;;;;;3.00;2.67;;;;;17.57;50.22;100235.88;5019740;28;45387;-72
2021/05/24 10:23:03;;;;;;;;;2.00;2.00;;;;;17.56;49.74;100236.84;5048692;28;45523;-69
2021/05/24 10:25:28;;;;;;;;;1.00;1.00;;;;;17.54;49.61;100236.94;5038779;28;46208;-69
2021/05/24 10:27:57;;;;;;;;;1.00;1.00;;;;;17.51;49.56;100231.72;5043695;28;45417;-69
2021/05/24 10:30:23;;;;;;;;;2.00;2.00;;;;;17.41;49.34;100218.94;5033895;28;45315;-73
2021/05/24 10:32:56;;;;;;;;;1.33;1.33;;;;;17.25;49.90;100232.34;5043165;28;45231;-71
2021/05/24 10:35:38;;;;;;;;;3.67;2.33;;;;;17.14;50.04;100232.09;5035476;28;46738;-72
2021/05/24 10:38:34;;;;;;;;;1.33;1.33;;;;;17.12;50.22;100225.94;5045967;28;45318;-71
2021/05/24 10:41:16;;;;;;;;;2.00;2.00;;;;;17.13;50.49;100225.00;5022723;28;45419;-70
2021/05/24 10:43:48;;;;;;;;;1.00;1.00;;;;;17.17;50.18;100218.53;5034207;28;45475;-70
2021/05/24 10:46:25;;;;;;;;;2.00;2.00;;;;;17.21;50.59;100217.41;5027590;28;46377;-71
2021/05/24 10:48:59;;;;;;;;;2.00;1.33;;;;;17.37;50.69;100231.66;5039472;28;45297;-71
2021/05/24 10:51:47;;;;;;;;;1.67;1.67;;;;;17.45;50.02;100218.66;5035222;28;45414;-70
2021/05/24 10:54:21;;;;;;;;;2.00;2.00;;;;;17.45;49.89;100217.81;5026642;28;45617;-70
2021/05/24 10:56:59;;;;;;;;;5.33;5.33;;;;;17.38;50.42;100219.09;5052302;28;47983;-70
2021/05/24 10:59:44;;;;;;;;;1.67;1.67;;;;;17.30;51.04;100224.91;5037399;28;45395;-74
2021/05/24 11:02:28;;;;;;;;;2.67;2.00;;;;;17.13;52.02;100227.69;5048386;28;45409;-69
2021/05/24 11:05:02;;;;;;;;;2.00;2.00;;;;;17.01;53.44;100232.78;5050803;28;45505;-71
2021/05/24 11:07:39;;;;;;;;;3.00;3.00;;;;;16.89;53.73;100232.59;5037294;28;46370;-70
2021/05/24 11:10:17;;;;;;;;;2.67;2.67;;;;;16.81;53.95;100233.03;5023585;28;45525;-72
2021/05/24 11:12:53;;;;;;;;;2.00;2.00;;;;;16.88;54.98;100207.59;5036730;28;45492;-71
2021/05/24 11:15:33;;;;;;;;;5.00;3.67;;;;;17.07;54.66;100207.44;5043500;28;45768;-70
2021/05/24 11:18:04;;;;;;;;;2.00;2.00;;;;;17.27;54.51;100208.97;5026088;28;48142;-71
2021/05/24 11:21:01;;;;;;;;;3.00;3.00;;;;;17.38;54.48;100217.28;5018108;28;45464;-70
2021/05/24 11:26:28;;;;;;;;;2.00;2.00;;;;;17.25;53.18;100190.31;5023387;28;45418;-69
2021/05/24 11:29:01;;;;;;;;;1.00;1.00;;;;;17.03;53.33;100185.31;5034730;28;46511;-69